Lynn Haven, Florida
Current Conditions -  °F | °C
As of 11:53 PM on Thursday 27 Nov 2014 (Local Time) from KECP Reporting Station
Clear Clear  
Wind Chill: 35°   Ceiling: Unl
Heat Index: 41°   Visibility: NA
Dew Point: 32°   Wind: 10mph
Humidity: 70%   Direction: 350°N
Pressure: 30.39"   Gusts: NA
Location:  30.24°N, 85.65°W
Report Text: KECP 280553Z AUTO 35009KT CLR 05/00 A3039 RMK AO2 SLP301 T00500000 10083 20044 401560044 58002 $
Loading
Personal Weather Stations






























Interactive Weather Map New forecast layout! Learn more

10-Day Weather Forecast

Advertisements
Track Severe Weather on mobile